Time;durP1;ratioP1;P1;durP2;ratioP2;P2;SDS_P1;SDS_P2;PMS_P1;PMS_P2;Temp;Humidity;BMP_temperature;BMP_pressure;BME280_temperature;BME280_humidity;BME280_pressure;Samples;Min_cycle;Max_cycle;Signal;HPM_P1;HPM_P2
2022/05/27 00:01:07;;;;;;;4.07;2.47;;;15.20;79.90;;;;;;5047373;28;20822;-76
2022/05/27 00:03:33;;;;;;;8.40;2.60;;;15.20;79.90;;;;;;5034805;28;20440;-76
2022/05/27 00:05:59;;;;;;;4.03;2.80;;;15.20;79.90;;;;;;5034310;28;20680;-76
2022/05/27 00:08:25;;;;;;;3.30;2.40;;;15.30;79.70;;;;;;5040892;28;20595;-76
2022/05/27 00:10:52;;;;;;;5.20;2.50;;;15.30;79.60;;;;;;5039208;28;20281;-76
2022/05/27 00:13:17;;;;;;;5.20;2.50;;;15.30;79.60;;;;;;5041532;28;20434;-75
2022/05/27 00:15:43;;;;;;;3.80;2.50;;;15.20;79.70;;;;;;5040612;28;20467;-76
2022/05/27 00:18:09;;;;;;;3.20;2.20;;;15.20;80.00;;;;;;5036741;28;20621;-76
2022/05/27 00:20:36;;;;;;;3.73;2.67;;;15.20;80.30;;;;;;5036193;28;20243;-76
2022/05/27 00:23:02;;;;;;;6.00;3.00;;;15.10;80.90;;;;;;5039669;28;20230;-78
2022/05/27 00:25:28;;;;;;;3.60;2.90;;;15.00;80.90;;;;;;5044100;28;20460;-75
2022/05/27 00:27:54;;;;;;;5.60;3.00;;;15.00;81.20;;;;;;5039346;28;20436;-78
2022/05/27 00:30:20;;;;;;;3.43;3.03;;;14.90;81.50;;;;;;5047398;28;20439;-78
2022/05/27 00:32:45;;;;;;;4.27;2.87;;;14.90;81.50;;;;;;5042925;28;20523;-78
2022/05/27 00:35:11;;;;;;;4.20;2.67;;;14.90;81.20;;;;;;5044081;28;20711;-77
2022/05/27 00:37:37;;;;;;;5.40;2.47;;;14.90;81.20;;;;;;5047597;28;20662;-77
2022/05/27 00:40:05;;;;;;;4.00;2.67;;;15.00;81.20;;;;;;5037910;28;20524;-75
2022/05/27 00:42:30;;;;;;;3.13;2.20;;;14.90;81.20;;;;;;5045410;28;20419;-75
2022/05/27 00:44:56;;;;;;;4.87;2.40;;;14.90;81.20;;;;;;5043626;28;20984;-75
2022/05/27 00:47:24;;;;;;;4.80;2.30;;;14.90;81.20;;;;;;5051187;28;20732;-76
2022/05/27 00:49:58;;;;;;;3.50;2.40;;;14.90;81.50;;;;;;5054830;28;20186;-77
2022/05/27 00:52:27;;;;;;;3.80;2.53;;;14.90;81.50;;;;;;5053847;28;20499;-76
2022/05/27 00:54:53;;;;;;;4.93;2.40;;;14.80;81.70;;;;;;5054833;28;20494;-77
2022/05/27 00:57:27;;;;;;;3.10;2.60;;;14.80;81.70;;;;;;5053937;28;20502;-76
2022/05/27 00:59:58;;;;;;;7.10;2.57;;;14.80;81.80;;;;;;5053647;28;20462;-77
2022/05/27 01:02:24;;;;;;;2.77;2.40;;;14.80;81.70;;;;;;5057641;28;20494;-77
2022/05/27 01:04:50;;;;;;;3.77;2.40;;;14.80;81.80;;;;;;5057425;28;20463;-76
2022/05/27 01:07:16;;;;;;;5.30;2.40;;;14.80;81.70;;;;;;5056954;28;20203;-75
2022/05/27 01:09:45;;;;;;;4.23;2.73;;;14.80;81.80;;;;;;5046499;28;20423;-76
2022/05/27 01:12:30;;;;;;;6.23;2.73;;;14.70;81.90;;;;;;5038319;28;20459;-76
2022/05/27 01:15:25;;;;;;;5.20;2.43;;;14.60;82.20;;;;;;5044593;28;20438;-78
2022/05/27 01:17:54;;;;;;;4.77;2.40;;;14.60;82.50;;;;;;5055817;28;20424;-75
2022/05/27 01:20:45;;;;;;;3.40;2.47;;;14.50;82.80;;;;;;5047705;28;20419;-76
2022/05/27 01:23:35;;;;;;;5.90;2.80;;;14.40;83.60;;;;;;5044383;28;20573;-75
2022/05/27 01:26:25;;;;;;;5.10;2.60;;;14.30;83.70;;;;;;5050579;28;20857;-75
2022/05/27 01:29:12;;;;;;;2.90;2.57;;;14.30;84.00;;;;;;5045787;28;20419;-76
2022/05/27 01:31:46;;;;;;;3.87;2.37;;;14.20;84.30;;;;;;5044644;28;20792;-76
2022/05/27 01:34:39;;;;;;;4.57;2.47;;;14.20;84.40;;;;;;5047117;28;20490;-76
2022/05/27 01:37:26;;;;;;;4.20;2.90;;;14.20;84.10;;;;;;5044972;28;20512;-75
2022/05/27 01:40:27;;;;;;;5.47;2.87;;;14.20;84.30;;;;;;5041724;28;20503;-75
2022/05/27 01:43:18;;;;;;;5.47;2.40;;;14.20;84.40;;;;;;5048345;28;20428;-75
2022/05/27 01:46:12;;;;;;;3.13;2.43;;;14.20;84.30;;;;;;5064653;28;20450;-75
2022/05/27 01:49:07;;;;;;;9.33;2.90;;;14.20;84.00;;;;;;5065657;28;20436;-77
2022/05/27 01:51:35;;;;;;;3.20;2.37;;;14.20;84.10;;;;;;5068958;28;20424;-76
2022/05/27 01:54:33;;;;;;;5.03;2.50;;;14.20;84.30;;;;;;5072780;28;20455;-76
2022/05/27 01:57:07;;;;;;;4.97;2.60;;;14.10;84.60;;;;;;5056668;28;20434;-77
2022/05/27 02:00:01;;;;;;;3.83;2.67;;;14.10;84.70;;;;;;5042304;28;20474;-76
2022/05/27 02:02:30;;;;;;;2.87;2.37;;;14.10;84.60;;;;;;5050413;28;20507;-75
2022/05/27 02:05:10;;;;;;;2.93;2.10;;;14.10;84.60;;;;;;5045755;28;20474;-75
2022/05/27 02:08:16;;;;;;;4.67;2.50;;;14.10;84.70;;;;;;5050903;28;20419;-76
2022/05/27 02:10:59;;;;;;;6.47;2.80;;;14.00;85.00;;;;;;5051024;28;20422;-76
2022/05/27 02:13:32;;;;;;;4.20;3.10;;;14.00;84.90;;;;;;5051056;28;20419;-76
2022/05/27 02:15:57;;;;;;;4.93;2.97;;;14.00;85.00;;;;;;5043561;28;20468;-76
2022/05/27 02:18:35;;;;;;;4.60;2.47;;;14.00;85.00;;;;;;5042620;28;20472;-76
2022/05/27 02:21:12;;;;;;;3.40;2.43;;;14.00;85.20;;;;;;5048800;28;20196;-76
2022/05/27 02:23:48;;;;;;;4.73;2.77;;;14.00;85.30;;;;;;5042659;28;20434;-76
2022/05/27 02:26:22;;;;;;;3.97;2.40;;;14.00;85.30;;;;;;5052046;28;20427;-77
2022/05/27 02:29:01;;;;;;;2.47;1.80;;;14.00;85.30;;;;;;5044928;28;20486;-76
2022/05/27 02:31:30;;;;;;;7.23;2.50;;;14.00;85.00;;;;;;5041471;28;20485;-76
2022/05/27 02:37:03;;;;;;;7.13;2.67;;;14.00;84.70;;;;;;5039852;28;20488;-77
2022/05/27 02:39:30;;;;;;;4.60;2.80;;;14.10;84.90;;;;;;5049311;28;20545;-77
2022/05/27 02:42:15;;;;;;;4.17;2.30;;;14.00;84.90;;;;;;5041084;28;20416;-77
2022/05/27 02:45:05;;;;;;;2.83;2.40;;;14.00;84.90;;;;;;5042647;28;20451;-77
2022/05/27 02:47:43;;;;;;;12.93;2.90;;;14.00;84.70;;;;;;5040685;28;20407;-75
2022/05/27 02:50:18;;;;;;;2.97;2.40;;;14.00;85.00;;;;;;5041879;28;20424;-78
2022/05/27 02:53:21;;;;;;;7.63;2.70;;;14.00;85.20;;;;;;5048643;28;20407;-76
2022/05/27 02:56:11;;;;;;;3.67;2.90;;;13.90;85.20;;;;;;5035119;28;20514;-78
2022/05/27 02:58:37;;;;;;;5.50;3.23;;;13.80;85.50;;;;;;5048381;28;20977;-76
2022/05/27 03:01:03;;;;;;;4.33;2.57;;;13.80;85.90;;;;;;5048865;28;20434;-77
2022/05/27 03:03:29;;;;;;;5.77;2.80;;;13.80;86.00;;;;;;5045605;28;20435;-75
2022/05/27 03:06:32;;;;;;;3.70;2.40;;;13.90;85.60;;;;;;5040125;28;20477;-77
2022/05/27 03:09:01;;;;;;;5.00;3.50;;;13.90;85.60;;;;;;5039250;28;20423;-76
2022/05/27 03:11:48;;;;;;;6.37;2.67;;;14.00;85.60;;;;;;5038022;28;20455;-76
2022/05/27 03:14:37;;;;;;;5.00;2.80;;;14.00;85.50;;;;;;5039613;28;20474;-76
2022/05/27 03:17:05;;;;;;;4.40;2.63;;;14.10;85.20;;;;;;5044291;28;20426;-75
2022/05/27 03:19:53;;;;;;;5.60;2.63;;;14.10;84.90;;;;;;5046738;28;20876;-76
2022/05/27 03:22:33;;;;;;;4.63;2.90;;;14.00;84.90;;;;;;5052548;28;20477;-75
2022/05/27 03:25:11;;;;;;;4.83;2.63;;;14.10;84.90;;;;;;5036508;28;21023;-78
2022/05/27 03:27:40;;;;;;;4.03;2.50;;;14.10;84.70;;;;;;5039916;28;20781;-78
2022/05/27 03:30:18;;;;;;;3.60;2.70;;;14.10;84.70;;;;;;5043708;28;20578;-77
2022/05/27 03:33:01;;;;;;;4.80;2.73;;;14.10;84.60;;;;;;5044357;28;20893;-77
2022/05/27 03:35:33;;;;;;;3.30;2.37;;;14.10;84.70;;;;;;5038132;28;20810;-78
2022/05/27 03:38:35;;;;;;;3.73;2.47;;;14.10;84.70;;;;;;5039711;28;20424;-75
2022/05/27 03:41:09;;;;;;;5.43;2.77;;;14.10;84.70;;;;;;5032700;28;20428;-76
2022/05/27 03:43:36;;;;;;;3.60;2.50;;;14.20;84.30;;;;;;5039396;28;20416;-76
2022/05/27 03:46:03;;;;;;;4.47;2.60;;;14.30;84.10;;;;;;5039253;28;20437;-75
2022/05/27 03:48:31;;;;;;;5.43;2.30;;;14.30;84.00;;;;;;5042540;28;20432;-77
2022/05/27 03:51:25;;;;;;;3.60;2.70;;;14.30;84.00;;;;;;5040089;28;20488;-78
2022/05/27 03:54:03;;;;;;;4.17;2.50;;;14.30;84.00;;;;;;5037846;28;20431;-76
2022/05/27 03:56:41;;;;;;;4.00;2.53;;;14.30;83.80;;;;;;5035069;28;20445;-77
2022/05/27 03:59:09;;;;;;;4.80;2.77;;;14.30;84.00;;;;;;5047833;28;20498;-76
2022/05/27 04:01:37;;;;;;;3.67;2.90;;;14.40;83.80;;;;;;5037153;28;20417;-76
2022/05/27 04:04:05;;;;;;;4.63;2.43;;;14.30;83.80;;;;;;5041892;28;20563;-78
2022/05/27 04:06:31;;;;;;;4.37;2.67;;;14.30;84.00;;;;;;5034636;28;20436;-76
2022/05/27 04:08:57;;;;;;;2.90;2.37;;;14.30;84.00;;;;;;5047623;28;20522;-77
2022/05/27 04:11:24;;;;;;;3.63;2.80;;;14.40;83.80;;;;;;5052043;28;20427;-77
2022/05/27 04:13:50;;;;;;;4.93;2.57;;;14.40;83.80;;;;;;5052091;28;20446;-77
2022/05/27 04:16:16;;;;;;;4.13;2.47;;;14.30;83.80;;;;;;5047708;28;20522;-77
2022/05/27 04:18:42;;;;;;;4.93;3.10;;;14.30;83.80;;;;;;5043511;28;20559;-76
2022/05/27 04:21:07;;;;;;;5.13;2.60;;;14.40;84.00;;;;;;5042776;28;20184;-76
2022/05/27 04:23:33;;;;;;;3.80;2.47;;;14.40;83.80;;;;;;5041810;28;20200;-76
2022/05/27 04:25:59;;;;;;;3.80;2.30;;;14.50;83.40;;;;;;5042383;28;20220;-78
2022/05/27 04:28:25;;;;;;;4.60;2.83;;;14.50;83.40;;;;;;5038790;28;20228;-78
2022/05/27 04:30:51;;;;;;;3.27;2.53;;;14.50;83.60;;;;;;5042191;28;20546;-77
2022/05/27 04:33:17;;;;;;;4.20;2.80;;;14.60;83.40;;;;;;5036159;28;20431;-78
2022/05/27 04:35:43;;;;;;;8.27;2.80;;;14.60;83.60;;;;;;5044052;28;20457;-76
2022/05/27 04:38:09;;;;;;;4.50;2.80;;;14.70;83.10;;;;;;5039544;28;20308;-75
2022/05/27 04:40:35;;;;;;;7.10;2.87;;;14.80;83.00;;;;;;5049321;28;20187;-75
2022/05/27 04:43:02;;;;;;;6.67;2.70;;;15.00;82.70;;;;;;5052809;28;20431;-75
2022/05/27 04:45:28;;;;;;;3.00;2.40;;;15.10;82.10;;;;;;5065204;28;20191;-74
2022/05/27 04:47:54;;;;;;;4.93;3.10;;;15.10;81.90;;;;;;5060103;28;20510;-77
2022/05/27 04:50:21;;;;;;;4.80;2.80;;;15.20;81.50;;;;;;5051137;28;20425;-77
2022/05/27 04:52:47;;;;;;;6.67;3.10;;;15.20;81.40;;;;;;5045942;28;20929;-76
2022/05/27 04:55:15;;;;;;;4.57;2.73;;;15.30;81.20;;;;;;5044311;28;20488;-76
2022/05/27 04:57:44;;;;;;;4.40;2.97;;;15.20;81.40;;;;;;5038813;28;20674;-76
2022/05/27 05:00:16;;;;;;;4.03;2.83;;;15.20;81.40;;;;;;5054119;28;20474;-76
2022/05/27 05:02:42;;;;;;;5.23;2.70;;;15.30;81.40;;;;;;5054708;28;20414;-76
2022/05/27 05:05:09;;;;;;;4.33;3.00;;;15.40;81.20;;;;;;5052386;28;20447;-77
2022/05/27 05:07:37;;;;;;;4.60;2.67;;;15.40;80.60;;;;;;5055481;28;20787;-76
2022/05/27 05:10:03;;;;;;;5.17;2.77;;;15.50;80.50;;;;;;5052836;28;20423;-77
2022/05/27 05:12:29;;;;;;;3.53;2.40;;;15.50;80.30;;;;;;5047333;28;20436;-76
2022/05/27 05:14:55;;;;;;;5.67;2.87;;;15.50;80.50;;;;;;5045767;28;20552;-75
2022/05/27 05:17:21;;;;;;;4.63;3.13;;;15.50;80.60;;;;;;5052621;28;20643;-76
2022/05/27 05:19:47;;;;;;;4.53;2.90;;;15.40;80.80;;;;;;5053240;28;20277;-76
2022/05/27 05:22:14;;;;;;;7.07;3.47;;;15.50;80.80;;;;;;5045864;28;20424;-76
2022/05/27 05:24:40;;;;;;;10.03;2.97;;;15.50;80.60;;;;;;5049975;28;20451;-77
2022/05/27 05:27:06;;;;;;;4.57;2.87;;;15.60;80.20;;;;;;5045501;28;20427;-76
2022/05/27 05:29:31;;;;;;;4.40;2.83;;;15.60;79.90;;;;;;5050928;28;20488;-75
2022/05/27 05:31:57;;;;;;;9.47;3.37;;;15.60;79.90;;;;;;5041758;28;20185;-76
2022/05/27 05:34:23;;;;;;;8.17;2.70;;;15.70;79.70;;;;;;5052268;28;20748;-75
2022/05/27 05:36:48;;;;;;;4.30;2.90;;;15.70;79.60;;;;;;5052511;28;20190;-76
2022/05/27 05:39:14;;;;;;;5.60;2.67;;;15.70;79.70;;;;;;5059102;28;20260;-76
2022/05/27 05:41:41;;;;;;;3.97;2.27;;;15.70;79.70;;;;;;5067650;28;20202;-76
2022/05/27 05:44:08;;;;;;;3.60;2.60;;;15.70;80.00;;;;;;5059701;28;20216;-75
2022/05/27 05:46:36;;;;;;;8.77;3.47;;;15.70;79.90;;;;;;5052043;28;20417;-76
2022/05/27 05:49:05;;;;;;;5.87;3.03;;;15.80;79.60;;;;;;5042406;28;20428;-76
2022/05/27 05:51:31;;;;;;;5.43;2.73;;;15.90;79.50;;;;;;5045489;28;20459;-76
2022/05/27 05:53:57;;;;;;;5.03;2.93;;;15.90;79.60;;;;;;5037848;28;20434;-76
2022/05/27 05:56:23;;;;;;;5.23;3.37;;;15.90;79.60;;;;;;5045329;28;20510;-75
2022/05/27 05:58:50;;;;;;;4.47;2.90;;;15.90;79.60;;;;;;5041849;28;20560;-76
2022/05/27 06:01:17;;;;;;;3.67;2.90;;;15.80;80.00;;;;;;5043619;28;20209;-76
2022/05/27 06:03:42;;;;;;;7.13;2.90;;;15.90;79.90;;;;;;5043800;28;20430;-76
2022/05/27 06:06:08;;;;;;;3.97;2.77;;;15.90;79.90;;;;;;5042386;28;20575;-77
2022/05/27 06:08:34;;;;;;;6.07;3.10;;;16.00;79.50;;;;;;5055293;28;20184;-75
2022/05/27 06:11:00;;;;;;;6.90;3.30;;;16.00;79.20;;;;;;5053528;28;20193;-76
2022/05/27 06:13:26;;;;;;;5.47;3.20;;;16.10;79.20;;;;;;5057749;28;20184;-77
2022/05/27 06:15:53;;;;;;;11.13;2.50;;;16.10;79.20;;;;;;5045396;28;20226;-76
2022/05/27 06:18:19;;;;;;;4.23;2.93;;;16.20;78.70;;;;;;5047920;28;20465;-77
2022/05/27 06:20:45;;;;;;;5.60;3.40;;;16.10;78.70;;;;;;5053674;28;20434;-76
2022/05/27 06:23:11;;;;;;;7.00;3.00;;;16.10;79.20;;;;;;5059710;28;20191;-77
2022/05/27 06:25:38;;;;;;;5.00;3.07;;;16.10;79.00;;;;;;5055948;28;20473;-76
2022/05/27 06:36:25;;;;;;;6.13;2.87;;;16.20;78.90;;;;;;5052427;28;20463;-76
2022/05/27 06:38:51;;;;;;;4.50;2.97;;;16.20;79.20;;;;;;5056252;28;20518;-78
2022/05/27 06:41:17;;;;;;;8.80;3.60;;;16.30;79.00;;;;;;5045889;28;20301;-78
2022/05/27 06:43:44;;;;;;;4.80;3.60;;;16.40;78.70;;;;;;5052498;28;20179;-76
2022/05/27 06:46:10;;;;;;;8.40;3.47;;;16.30;79.00;;;;;;5044295;28;20202;-76
2022/05/27 06:48:35;;;;;;;5.53;3.03;;;16.30;79.00;;;;;;5057861;28;20426;-76
2022/05/27 06:51:06;;;;;;;4.87;2.90;;;16.20;79.30;;;;;;5044645;28;20196;-77
2022/05/27 06:53:31;;;;;;;6.73;3.10;;;16.20;79.90;;;;;;5046559;28;20185;-76
2022/05/27 06:55:57;;;;;;;4.93;3.00;;;16.20;79.90;;;;;;5038857;28;20457;-76
2022/05/27 06:58:23;;;;;;;6.10;3.23;;;16.20;80.00;;;;;;5043330;28;20470;-77
2022/05/27 07:00:49;;;;;;;7.57;3.73;;;16.10;79.90;;;;;;5053373;28;20424;-75
2022/05/27 07:03:15;;;;;;;5.80;3.37;;;16.10;80.20;;;;;;5050458;28;20216;-76
2022/05/27 07:05:40;;;;;;;5.67;3.37;;;16.10;80.60;;;;;;5048672;28;20295;-76
2022/05/27 07:08:07;;;;;;;6.03;2.83;;;16.20;80.80;;;;;;5051821;28;20196;-76
2022/05/27 07:10:33;;;;;;;5.30;3.07;;;16.20;80.60;;;;;;5052891;28;20186;-76
2022/05/27 07:12:59;;;;;;;7.07;3.53;;;16.30;80.50;;;;;;5034991;28;20494;-76
2022/05/27 07:15:29;;;;;;;7.00;3.37;;;16.40;79.60;;;;;;5045650;28;20453;-76
2022/05/27 07:17:55;;;;;;;5.50;3.00;;;16.40;79.30;;;;;;5048496;28;20261;-77
2022/05/27 07:20:23;;;;;;;6.93;3.60;;;16.50;78.90;;;;;;5056314;28;20429;-76
2022/05/27 07:22:49;;;;;;;5.80;2.83;;;16.40;79.00;;;;;;5051213;28;20419;-78
2022/05/27 07:25:15;;;;;;;7.70;3.13;;;16.50;79.00;;;;;;5051592;28;20499;-76
2022/05/27 07:27:42;;;;;;;5.30;3.10;;;16.60;78.90;;;;;;5052240;28;20468;-77
2022/05/27 07:30:09;;;;;;;4.83;2.80;;;16.50;79.20;;;;;;5047310;28;20531;-75
2022/05/27 07:32:36;;;;;;;5.60;3.50;;;16.60;78.60;;;;;;5049925;28;20419;-77
2022/05/27 07:35:04;;;;;;;8.00;3.70;;;16.40;78.70;;;;;;5041931;28;20459;-76
2022/05/27 07:37:29;;;;;;;4.50;3.03;;;16.40;79.30;;;;;;5049706;28;20530;-77
2022/05/27 07:39:55;;;;;;;6.20;3.13;;;16.40;79.00;;;;;;5050684;28;20466;-77
2022/05/27 07:42:21;;;;;;;6.10;3.43;;;16.50;78.70;;;;;;5051345;28;20193;-77
2022/05/27 07:44:47;;;;;;;6.47;3.17;;;16.60;78.40;;;;;;5046974;28;20210;-76
2022/05/27 07:47:13;;;;;;;5.60;3.00;;;16.70;78.30;;;;;;5050185;28;20427;-75
2022/05/27 07:49:38;;;;;;;4.40;3.30;;;16.80;78.00;;;;;;5047059;28;20275;-77
2022/05/27 07:52:05;;;;;;;6.50;3.17;;;17.10;77.10;;;;;;5052018;28;20188;-77
2022/05/27 07:54:31;;;;;;;6.03;3.47;;;16.90;77.30;;;;;;5043928;28;20203;-77
2022/05/27 07:56:57;;;;;;;5.03;3.07;;;16.70;78.10;;;;;;5049106;28;20419;-76
2022/05/27 07:59:23;;;;;;;5.30;3.57;;;16.60;78.90;;;;;;5048694;28;20233;-76
2022/05/27 08:01:49;;;;;;;11.47;3.30;;;16.70;78.60;;;;;;5055320;28;20419;-76
2022/05/27 08:04:15;;;;;;;5.00;3.03;;;16.80;77.80;;;;;;5063256;28;20615;-76
2022/05/27 08:06:41;;;;;;;9.70;2.93;;;16.90;77.40;;;;;;5060007;28;20181;-77
2022/05/27 08:09:06;;;;;;;9.63;3.80;;;16.90;77.30;;;;;;5065834;28;20517;-76
2022/05/27 08:11:32;;;;;;;5.37;2.97;;;17.00;77.30;;;;;;5065929;28;20200;-76
2022/05/27 08:14:00;;;;;;;3.97;2.90;;;17.10;76.80;;;;;;5067065;28;20211;-76
2022/05/27 08:16:26;;;;;;;4.43;3.03;;;17.10;76.50;;;;;;5066040;28;20252;-77
2022/05/27 08:18:52;;;;;;;4.87;3.00;;;17.10;76.40;;;;;;5064380;28;20492;-76
2022/05/27 08:21:18;;;;;;;7.17;3.00;;;16.70;77.40;;;;;;5055585;28;20430;-77
2022/05/27 08:23:44;;;;;;;5.23;3.33;;;16.90;77.60;;;;;;5068213;28;20184;-77
2022/05/27 08:26:10;;;;;;;4.90;3.43;;;17.10;76.70;;;;;;5067280;28;20433;-76
2022/05/27 08:28:36;;;;;;;5.77;3.10;;;17.20;76.50;;;;;;5062413;28;20282;-76
2022/05/27 08:31:01;;;;;;;5.73;3.17;;;17.00;76.50;;;;;;5063200;28;20820;-77
2022/05/27 08:38:01;;;;;;;4.83;3.17;;;16.90;77.70;;;;;;5042952;28;20674;-76
2022/05/27 08:39:10;;;;;;;5.60;3.20;;;17.10;76.70;;;;;;5064074;28;20545;-76
2022/05/27 08:41:42;;;;;;;5.70;3.20;;;17.10;75.80;;;;;;5063523;28;20458;-76
2022/05/27 08:44:26;;;;;;;5.27;3.10;;;17.10;76.50;;;;;;5062199;28;20438;-76
2022/05/27 08:46:57;;;;;;;4.20;2.90;;;17.20;76.20;;;;;;5064067;28;20456;-75
2022/05/27 08:49:36;;;;;;;9.60;3.60;;;17.20;76.20;;;;;;5069432;28;20415;-76
2022/05/27 08:52:21;;;;;;;5.33;3.23;;;17.20;76.40;;;;;;5062230;28;20427;-77
2022/05/27 08:54:57;;;;;;;6.00;3.13;;;17.40;76.50;;;;;;5063963;28;20494;-79
2022/05/27 09:00:17;;;;;;;4.57;2.97;;;17.50;75.90;;;;;;5060913;28;20464;-79
2022/05/27 09:02:59;;;;;;;5.23;3.60;;;17.80;75.20;;;;;;5064774;28;20731;-76
2022/05/27 09:05:35;;;;;;;6.33;2.90;;;17.60;75.10;;;;;;5059512;28;20485;-76
2022/05/27 09:08:22;;;;;;;5.50;3.17;;;17.70;74.30;;;;;;5056009;28;20414;-76
2022/05/27 09:11:18;;;;;;;3.80;3.23;;;17.60;74.90;;;;;;5056488;28;20412;-76
2022/05/27 09:14:11;;;;;;;4.27;3.30;;;17.50;73.70;;;;;;5052426;28;20494;-77
2022/05/27 09:16:55;;;;;;;7.63;3.50;;;17.30;74.00;;;;;;5048027;28;20420;-76
2022/05/27 09:19:44;;;;;;;6.13;3.80;;;17.30;74.50;;;;;;5048235;28;20465;-77
2022/05/27 09:22:49;;;;;;;4.50;2.87;;;17.40;74.80;;;;;;5051359;28;20426;-77
2022/05/27 09:25:39;;;;;;;4.83;3.40;;;17.60;74.60;;;;;;5042036;28;21005;-76
2022/05/27 09:28:30;;;;;;;9.30;3.73;;;17.70;72.40;;;;;;5049753;28;20415;-77
2022/05/27 09:30:58;;;;;;;5.30;2.90;;;17.80;71.40;;;;;;5041131;28;20497;-76
2022/05/27 09:33:26;;;;;;;4.80;3.50;;;17.70;71.80;;;;;;5049852;28;20407;-76
2022/05/27 09:36:07;;;;;;;6.53;3.53;;;17.70;72.30;;;;;;5048455;28;20462;-77
2022/05/27 09:38:35;;;;;;;9.10;2.93;;;17.80;71.00;;;;;;5054566;28;20460;-76
2022/05/27 09:41:23;;;;;;;5.70;3.20;;;17.90;70.20;;;;;;5050718;28;20423;-75
2022/05/27 09:44:13;;;;;;;7.03;3.30;;;18.10;69.20;;;;;;5044334;28;20495;-76
2022/05/27 09:46:39;;;;;;;5.50;2.67;;;18.20;68.60;;;;;;5052222;28;20430;-76
2022/05/27 09:49:05;;;;;;;5.27;2.80;;;18.40;67.70;;;;;;5054053;28;20473;-76
2022/05/27 09:51:32;;;;;;;5.60;3.03;;;18.60;67.70;;;;;;5045270;28;21022;-76
2022/05/27 09:54:21;;;;;;;5.00;2.90;;;18.70;67.50;;;;;;5052574;28;20715;-76
2022/05/27 09:57:03;;;;;;;8.10;3.37;;;18.70;66.30;;;;;;5046863;28;21080;-78
2022/05/27 09:59:40;;;;;;;4.07;3.33;;;18.80;65.40;;;;;;5047929;28;20455;-79
2022/05/27 10:02:22;;;;;;;4.77;2.90;;;18.80;65.10;;;;;;5052757;28;20417;-77
2022/05/27 10:05:07;;;;;;;4.93;2.80;;;18.80;63.90;;;;;;5048075;28;20537;-77
2022/05/27 10:07:40;;;;;;;3.80;2.30;;;18.90;63.70;;;;;;5051581;28;20509;-76
2022/05/27 10:10:34;;;;;;;3.50;2.70;;;18.80;63.50;;;;;;5050346;28;20424;-75
2022/05/27 10:13:23;;;;;;;5.43;2.47;;;18.90;64.20;;;;;;5050556;28;20438;-76
2022/05/27 10:15:49;;;;;;;5.87;2.77;;;19.50;63.50;;;;;;5050864;28;20459;-76
2022/05/27 10:18:23;;;;;;;5.37;3.13;;;19.80;61.60;;;;;;5053086;28;20884;-77
2022/05/27 10:20:57;;;;;;;4.23;2.57;;;19.70;60.40;;;;;;5050478;28;20203;-78
2022/05/27 10:23:30;;;;;;;3.43;2.30;;;19.70;59.60;;;;;;5057812;28;20414;-78
2022/05/27 10:25:57;;;;;;;3.70;2.53;;;19.60;59.30;;;;;;5054389;28;20856;-77
2022/05/27 10:28:31;;;;;;;3.43;3.03;;;19.60;59.70;;;;;;5057238;28;20437;-77
2022/05/27 10:31:02;;;;;;;6.90;3.50;;;20.00;59.50;;;;;;5050764;28;20426;-77
2022/05/27 10:33:41;;;;;;;4.97;3.27;;;20.30;59.50;;;;;;5066517;28;20452;-78
2022/05/27 10:36:26;;;;;;;5.30;2.90;;;20.20;58.50;;;;;;5068277;28;20448;-76
2022/05/27 10:39:13;;;;;;;4.67;2.70;;;20.30;58.80;;;;;;5060204;28;20555;-76
2022/05/27 10:41:54;;;;;;;3.90;2.90;;;20.30;58.10;;;;;;5038703;28;20448;-79
2022/05/27 10:44:47;;;;;;;4.10;2.70;;;20.00;59.20;;;;;;5049336;28;20451;-76
2022/05/27 10:47:33;;;;;;;5.87;3.10;;;19.80;59.90;;;;;;5053166;28;20797;-77
2022/05/27 10:50:20;;;;;;;3.10;2.00;;;19.90;58.50;;;;;;5054882;28;20422;-75
2022/05/27 10:53:26;;;;;;;3.07;2.37;;;20.10;56.90;;;;;;5049810;28;20423;-76
2022/05/27 10:56:21;;;;;;;5.43;2.40;;;19.80;58.70;;;;;;5052139;28;20892;-76
2022/05/27 11:02:05;;;;;;;5.90;2.40;;;20.10;57.30;;;;;;5038478;28;20396;-76
2022/05/27 11:04:56;;;;;;;3.43;2.73;;;20.00;57.70;;;;;;5050539;28;20879;-75
2022/05/27 11:07:41;;;;;;;4.23;2.80;;;19.80;57.80;;;;;;5064181;28;20473;-77
2022/05/27 11:10:43;;;;;;;3.17;2.63;;;19.60;58.80;;;;;;5045877;28;20460;-78
2022/05/27 11:16:37;;;;;;;2.90;2.47;;;19.00;60.60;;;;;;5050081;28;20422;-76
2022/05/27 11:19:12;;;;;;;3.77;2.70;;;19.00;61.30;;;;;;5047304;28;20469;-75
2022/05/27 11:21:49;;;;;;;5.20;3.37;;;19.20;60.90;;;;;;5051349;28;20413;-76
2022/05/27 11:24:25;;;;;;;5.60;2.80;;;19.20;60.40;;;;;;5044814;28;20450;-77
2022/05/27 11:27:23;;;;;;;4.03;2.70;;;19.00;61.20;;;;;;5051682;28;20418;-75
2022/05/27 11:30:06;;;;;;;5.20;2.63;;;19.20;60.60;;;;;;5047330;28;20418;-75
2022/05/27 11:32:58;;;;;;;4.57;2.60;;;19.10;61.50;;;;;;5043874;28;20410;-76
2022/05/27 11:35:42;;;;;;;6.57;2.50;;;19.30;61.20;;;;;;5045068;28;20478;-76
2022/05/27 11:38:33;;;;;;;2.93;2.43;;;19.20;60.40;;;;;;5049888;28;20515;-78
2022/05/27 11:41:15;;;;;;;4.57;2.73;;;18.90;61.00;;;;;;5045198;28;20835;-78
2022/05/27 11:44:28;;;;;;;3.90;2.60;;;19.20;61.00;;;;;;5048671;28;20916;-77
2022/05/27 11:47:14;;;;;;;3.60;2.37;;;19.70;60.30;;;;;;5043189;28;20599;-76
2022/05/27 11:49:52;;;;;;;4.40;2.20;;;19.70;59.90;;;;;;5014415;28;20421;-76
2022/05/27 11:52:27;;;;;;;4.33;2.93;;;19.60;60.70;;;;;;5048414;28;20431;-75
2022/05/27 11:55:11;;;;;;;5.10;3.07;;;19.50;60.30;;;;;;5041769;28;20461;-77
2022/05/27 11:58:02;;;;;;;4.27;2.90;;;19.80;59.90;;;;;;5052841;28;20786;-77
2022/05/27 12:00:30;;;;;;;6.07;2.60;;;19.70;59.90;;;;;;5052988;28;20808;-76
2022/05/27 12:03:02;;;;;;;3.60;2.30;;;19.90;60.00;;;;;;5050921;28;20479;-78
2022/05/27 12:05:36;;;;;;;3.97;2.57;;;20.20;59.50;;;;;;5043066;28;20468;-76
2022/05/27 12:08:24;;;;;;;3.53;2.30;;;20.50;58.70;;;;;;5046723;28;20419;-76
2022/05/27 12:10:58;;;;;;;4.30;2.23;;;20.80;58.50;;;;;;5042617;28;20499;-76
2022/05/27 12:13:33;;;;;;;6.50;3.47;;;20.90;57.40;;;;;;5049839;28;20406;-74
2022/05/27 12:16:17;;;;;;;3.77;2.37;;;21.00;57.30;;;;;;5047137;28;20438;-75
2022/05/27 12:19:03;;;;;;;4.30;2.67;;;20.70;58.20;;;;;;5041928;28;20462;-76
2022/05/27 12:21:38;;;;;;;5.53;2.53;;;20.70;58.90;;;;;;5047127;28;20420;-76
2022/05/27 12:24:36;;;;;;;2.47;1.90;;;20.70;59.10;;;;;;5048020;28;20823;-75
2022/05/27 12:27:04;;;;;;;3.30;2.40;;;20.70;58.50;;;;;;5038475;28;20439;-76
2022/05/27 12:29:32;;;;;;;4.33;2.73;;;20.80;58.70;;;;;;5046776;28;20424;-75
2022/05/27 12:31:59;;;;;;;2.97;2.53;;;20.70;58.50;;;;;;5053176;28;20427;-77
2022/05/27 12:34:27;;;;;;;4.47;2.53;;;21.00;58.70;;;;;;5046697;28;20874;-77
2022/05/27 12:37:12;;;;;;;2.70;2.30;;;21.80;56.60;;;;;;5049877;28;20515;-75
2022/05/27 12:39:39;;;;;;;2.30;2.17;;;22.20;54.80;;;;;;5048726;28;20469;-76
2022/05/27 12:42:23;;;;;;;13.53;2.73;;;22.70;53.60;;;;;;5049151;28;20514;-76
2022/05/27 12:44:49;;;;;;;3.23;2.50;;;23.10;52.60;;;;;;5038971;28;20458;-76
2022/05/27 12:47:22;;;;;;;9.37;3.13;;;23.50;51.40;;;;;;5045044;28;20504;-78
2022/05/27 12:50:00;;;;;;;4.10;2.53;;;23.50;51.60;;;;;;5050248;28;20419;-77
2022/05/27 12:52:52;;;;;;;3.20;2.47;;;22.80;53.30;;;;;;5048525;28;20425;-77
2022/05/27 13:01:36;;;;;;;4.63;3.27;;;21.90;55.60;;;;;;5052481;28;20421;-77
2022/05/27 13:04:03;;;;;;;3.13;2.50;;;21.50;56.80;;;;;;5049430;28;20440;-75
2022/05/27 13:06:32;;;;;;;4.43;2.43;;;21.20;57.70;;;;;;5056834;28;20586;-75
2022/05/27 13:09:30;;;;;;;4.13;3.10;;;21.20;58.20;;;;;;5055646;28;20886;-77
2022/05/27 13:11:55;;;;;;;5.47;3.30;;;21.10;58.80;;;;;;5055804;28;20443;-76
2022/05/27 13:14:45;;;;;;;4.40;3.20;;;21.10;59.10;;;;;;5054725;28;20468;-77
2022/05/27 13:17:29;;;;;;;4.97;3.10;;;21.00;59.60;;;;;;5056730;28;20191;-77
2022/05/27 13:20:21;;;;;;;3.50;2.30;;;21.00;59.10;;;;;;5050573;28;21003;-77
2022/05/27 13:22:58;;;;;;;3.43;2.83;;;21.00;59.30;;;;;;5045643;28;20433;-76
2022/05/27 13:25:31;;;;;;;2.60;2.10;;;20.90;59.50;;;;;;5046098;28;20994;-76
2022/05/27 13:28:03;;;;;;;5.87;3.67;;;20.70;59.30;;;;;;5058494;28;20434;-78
2022/05/27 13:30:48;;;;;;;6.40;2.53;;;20.70;59.60;;;;;;5076125;28;20417;-76
2022/05/27 13:33:14;;;;;;;4.40;3.10;;;20.80;59.20;;;;;;5070910;28;20447;-77
2022/05/27 13:35:44;;;;;;;6.97;3.43;;;21.00;59.20;;;;;;5050975;28;20875;-76
2022/05/27 13:38:13;;;;;;;8.43;2.70;;;20.70;59.70;;;;;;5053625;28;20453;-76
2022/05/27 13:40:41;;;;;;;3.57;2.20;;;20.60;60.10;;;;;;5044177;28;20472;-76
2022/05/27 13:43:17;;;;;;;2.80;2.33;;;20.80;59.30;;;;;;5048792;28;20437;-76
2022/05/27 13:45:55;;;;;;;3.67;2.20;;;20.90;58.90;;;;;;5049476;28;21040;-78
2022/05/27 13:48:43;;;;;;;4.10;2.83;;;20.90;59.10;;;;;;5045794;28;20443;-77
2022/05/27 13:51:15;;;;;;;3.73;2.73;;;20.80;60.00;;;;;;5053317;28;20412;-76